Time;durP1;ratioP1;P1;durP2;ratioP2;P2;SDS_P1;SDS_P2;PMS_P1;PMS_P2;Temp;Humidity;BMP_temperature;BMP_pressure;BME280_temperature;BME280_humidity;BME280_pressure;Samples;Min_cycle;Max_cycle;Signal;HPM_P1;HPM_P2
2023/05/25 00:00:04;;;;;;;17.27;9.40;;;;;;;;;;5052630;28;20037;-68
2023/05/25 00:02:32;;;;;;;13.25;8.93;;;;;;;;;;5052434;28;20017;-68
2023/05/25 00:04:59;;;;;;;11.20;7.63;;;;;;;;;;5050827;28;20021;-68
2023/05/25 00:07:26;;;;;;;14.18;8.98;;;;;;;;;;5052240;28;20032;-68
2023/05/25 00:09:52;;;;;;;11.02;7.70;;;;;;;;;;5052176;28;20025;-68
2023/05/25 00:12:18;;;;;;;12.32;7.35;;;;;;;;;;5052270;28;20032;-68
2023/05/25 00:14:45;;;;;;;9.13;7.10;;;;;;;;;;5052349;28;20029;-68
2023/05/25 00:17:12;;;;;;;13.48;7.13;;;;;;;;;;5052148;28;20043;-68
2023/05/25 00:19:42;;;;;;;11.07;7.90;;;;;;;;;;5052124;28;20022;-68
2023/05/25 00:22:09;;;;;;;9.63;7.80;;;;;;;;;;5052407;28;20028;-68
2023/05/25 00:24:35;;;;;;;11.70;7.90;;;;;;;;;;5051917;28;20049;-68
2023/05/25 00:27:02;;;;;;;12.18;7.50;;;;;;;;;;5051875;28;20500;-68
2023/05/25 00:29:29;;;;;;;12.68;7.60;;;;;;;;;;5051783;28;20035;-68
2023/05/25 00:31:55;;;;;;;12.98;7.90;;;;;;;;;;5051876;28;20025;-68
2023/05/25 00:34:21;;;;;;;9.70;7.88;;;;;;;;;;5051728;28;20139;-68
2023/05/25 00:36:48;;;;;;;11.73;8.02;;;;;;;;;;5051603;28;20409;-68
2023/05/25 00:39:15;;;;;;;10.13;7.38;;;;;;;;;;5051911;28;20032;-68
2023/05/25 00:41:43;;;;;;;18.42;8.57;;;;;;;;;;5051748;28;20409;-68
2023/05/25 00:44:09;;;;;;;13.40;8.55;;;;;;;;;;5051992;28;20027;-68
2023/05/25 00:46:40;;;;;;;14.00;8.38;;;;;;;;;;5051637;28;20025;-68
2023/05/25 00:49:06;;;;;;;11.60;7.70;;;;;;;;;;5052071;28;20020;-68
2023/05/25 00:51:35;;;;;;;12.48;7.75;;;;;;;;;;5051829;28;20029;-68
2023/05/25 00:54:01;;;;;;;14.90;8.45;;;;;;;;;;5051724;28;20028;-68
2023/05/25 00:56:30;;;;;;;11.40;8.60;;;;;;;;;;5051591;28;20033;-68
2023/05/25 00:58:57;;;;;;;11.98;7.63;;;;;;;;;;5051659;28;20374;-68
2023/05/25 01:01:25;;;;;;;11.90;8.05;;;;;;;;;;5051442;28;20029;-68
2023/05/25 01:03:52;;;;;;;12.50;7.70;;;;;;;;;;5051985;28;20122;-68
2023/05/25 01:06:20;;;;;;;10.10;7.35;;;;;;;;;;5051493;28;20044;-68
2023/05/25 01:08:50;;;;;;;13.40;7.90;;;;;;;;;;5051634;28;20385;-68
2023/05/25 01:11:19;;;;;;;9.90;7.70;;;;;;;;;;5051635;28;20039;-68
2023/05/25 01:13:46;;;;;;;14.55;8.40;;;;;;;;;;5051702;28;20028;-68
2023/05/25 01:16:12;;;;;;;18.10;8.55;;;;;;;;;;5051208;28;20489;-68
2023/05/25 01:18:40;;;;;;;12.40;8.02;;;;;;;;;;5051499;28;20029;-68
2023/05/25 01:21:22;;;;;;;15.00;8.43;;;;;;;;;;5051343;28;20033;-68
2023/05/25 01:24:03;;;;;;;11.25;7.97;;;;;;;;;;5051246;28;20048;-68
2023/05/25 01:26:33;;;;;;;11.82;7.55;;;;;;;;;;5051460;28;20082;-68
2023/05/25 01:29:01;;;;;;;12.40;8.20;;;;;;;;;;5051320;28;20392;-68
2023/05/25 01:31:28;;;;;;;10.70;7.63;;;;;;;;;;5051294;28;20027;-68
2023/05/25 01:33:55;;;;;;;16.25;8.02;;;;;;;;;;5051457;28;20024;-68
2023/05/25 01:36:22;;;;;;;12.18;8.20;;;;;;;;;;5051313;28;20036;-67
2023/05/25 01:38:49;;;;;;;16.35;9.00;;;;;;;;;;5051382;28;20049;-68
2023/05/25 01:41:15;;;;;;;14.73;8.77;;;;;;;;;;5051379;28;20021;-68
2023/05/25 01:43:42;;;;;;;12.82;8.30;;;;;;;;;;5051961;28;20037;-68
2023/05/25 01:46:15;;;;;;;12.43;8.10;;;;;;;;;;5050862;28;20059;-68
2023/05/25 01:48:52;;;;;;;10.70;7.78;;;;;;;;;;5053784;28;20024;-68
2023/05/25 01:51:25;;;;;;;13.57;8.25;;;;;;;;;;5055044;28;20032;-68
2023/05/25 01:53:58;;;;;;;10.88;7.55;;;;;;;;;;5054811;28;20029;-68
2023/05/25 01:56:27;;;;;;;13.35;8.43;;;;;;;;;;5054561;28;20051;-68
2023/05/25 01:58:55;;;;;;;10.75;7.03;;;;;;;;;;5054514;28;20021;-68
2023/05/25 02:01:22;;;;;;;12.52;7.53;;;;;;;;;;5054705;28;20054;-68
2023/05/25 02:03:48;;;;;;;11.07;7.22;;;;;;;;;;5054499;28;20031;-68
2023/05/25 02:06:15;;;;;;;12.05;7.15;;;;;;;;;;5054486;28;20039;-68
2023/05/25 02:08:43;;;;;;;13.13;7.18;;;;;;;;;;5054853;28;20031;-68
2023/05/25 02:11:09;;;;;;;12.35;8.10;;;;;;;;;;5054487;28;20029;-68
2023/05/25 02:13:36;;;;;;;10.57;7.97;;;;;;;;;;5054485;28;20623;-68
2023/05/25 02:16:02;;;;;;;12.23;8.70;;;;;;;;;;5054553;28;20029;-68
2023/05/25 02:18:28;;;;;;;13.63;8.25;;;;;;;;;;5054386;28;20059;-68
2023/05/25 02:20:55;;;;;;;12.52;7.85;;;;;;;;;;5054466;28;20020;-68
2023/05/25 02:23:21;;;;;;;12.70;7.75;;;;;;;;;;5054183;28;20053;-68
2023/05/25 02:25:47;;;;;;;15.23;8.35;;;;;;;;;;5054230;28;20040;-68
2023/05/25 02:28:14;;;;;;;11.32;7.95;;;;;;;;;;5053831;28;20074;-68
2023/05/25 02:30:40;;;;;;;14.25;7.95;;;;;;;;;;5054048;28;20486;-68
2023/05/25 02:33:07;;;;;;;11.52;8.05;;;;;;;;;;5053931;28;20102;-67
2023/05/25 02:35:33;;;;;;;14.60;8.05;;;;;;;;;;5053986;28;20531;-68
2023/05/25 02:38:00;;;;;;;11.52;7.65;;;;;;;;;;5053926;28;20425;-68
2023/05/25 02:40:26;;;;;;;14.23;8.38;;;;;;;;;;5054067;28;20028;-68
2023/05/25 02:42:53;;;;;;;12.60;7.55;;;;;;;;;;5053599;28;20043;-68
2023/05/25 02:45:19;;;;;;;11.45;6.93;;;;;;;;;;5053725;28;20041;-68
2023/05/25 02:47:45;;;;;;;15.05;7.45;;;;;;;;;;5053738;28;20021;-68
2023/05/25 02:50:12;;;;;;;12.05;7.43;;;;;;;;;;5053846;28;20051;-68
2023/05/25 02:52:38;;;;;;;10.70;6.97;;;;;;;;;;5053623;28;20029;-68
2023/05/25 02:55:05;;;;;;;12.27;7.65;;;;;;;;;;5053580;28;20027;-68
2023/05/25 02:57:31;;;;;;;11.45;7.05;;;;;;;;;;5053242;28;20031;-68
2023/05/25 02:59:57;;;;;;;9.95;6.90;;;;;;;;;;5053647;28;20039;-68
2023/05/25 03:02:24;;;;;;;12.15;7.03;;;;;;;;;;5053473;28;20025;-68
2023/05/25 03:04:52;;;;;;;11.15;7.10;;;;;;;;;;5053758;28;20033;-68
2023/05/25 03:07:20;;;;;;;12.23;7.30;;;;;;;;;;5053214;28;20052;-68
2023/05/25 03:09:46;;;;;;;17.02;7.50;;;;;;;;;;5053515;28;20029;-68
2023/05/25 03:12:12;;;;;;;11.85;7.30;;;;;;;;;;5053333;28;20043;-68
2023/05/25 03:14:39;;;;;;;18.73;8.32;;;;;;;;;;5053528;28;20021;-68
2023/05/25 03:17:05;;;;;;;14.68;7.80;;;;;;;;;;5053317;28;20028;-68
2023/05/25 03:19:32;;;;;;;13.88;7.18;;;;;;;;;;5053011;28;20029;-68
2023/05/25 03:21:58;;;;;;;15.90;7.40;;;;;;;;;;5053036;28;20503;-67
2023/05/25 03:24:25;;;;;;;17.50;8.13;;;;;;;;;;5052876;28;20033;-68
2023/05/25 03:26:52;;;;;;;12.80;7.75;;;;;;;;;;5052750;28;20040;-68
2023/05/25 03:29:18;;;;;;;13.38;8.43;;;;;;;;;;5052833;28;20474;-68
2023/05/25 03:31:44;;;;;;;16.45;8.23;;;;;;;;;;5052851;28;20482;-68
2023/05/25 03:34:11;;;;;;;17.13;7.95;;;;;;;;;;5052866;28;20021;-68
2023/05/25 03:36:37;;;;;;;18.83;7.82;;;;;;;;;;5052826;28;20044;-68
2023/05/25 03:39:05;;;;;;;9.90;7.60;;;;;;;;;;5052612;28;20388;-67
2023/05/25 03:41:31;;;;;;;15.45;7.60;;;;;;;;;;5051191;28;20031;-67
2023/05/25 03:43:57;;;;;;;9.82;7.03;;;;;;;;;;5052710;28;20464;-68
2023/05/25 03:46:24;;;;;;;9.43;7.15;;;;;;;;;;5052648;28;20043;-68
2023/05/25 03:48:50;;;;;;;10.80;7.35;;;;;;;;;;5052481;28;20527;-68
2023/05/25 03:51:16;;;;;;;17.05;8.25;;;;;;;;;;5052748;28;20036;-68
2023/05/25 03:53:43;;;;;;;9.20;6.82;;;;;;;;;;5052511;28;20019;-68
2023/05/25 03:56:09;;;;;;;12.18;7.28;;;;;;;;;;5052478;28;20025;-68
2023/05/25 03:58:35;;;;;;;12.65;7.25;;;;;;;;;;5052337;28;20465;-67
2023/05/25 04:01:02;;;;;;;11.40;7.75;;;;;;;;;;5052423;28;20037;-68
2023/05/25 04:03:31;;;;;;;14.60;7.68;;;;;;;;;;5052408;28;20025;-68
2023/05/25 04:05:59;;;;;;;16.85;7.82;;;;;;;;;;5052153;28;20550;-68
2023/05/25 04:08:27;;;;;;;11.05;6.88;;;;;;;;;;5052648;28;20559;-68
2023/05/25 04:10:53;;;;;;;10.48;7.60;;;;;;;;;;5051621;28;20029;-68
2023/05/25 04:13:20;;;;;;;10.55;6.63;;;;;;;;;;5052242;28;20028;-68
2023/05/25 04:15:46;;;;;;;10.07;6.63;;;;;;;;;;5052495;28;20040;-68
2023/05/25 04:18:12;;;;;;;13.50;6.93;;;;;;;;;;5052037;28;20024;-68
2023/05/25 04:20:39;;;;;;;15.20;6.43;;;;;;;;;;5052105;28;20032;-68
2023/05/25 04:23:05;;;;;;;9.80;5.97;;;;;;;;;;5051835;28;20045;-67
2023/05/25 04:25:31;;;;;;;11.90;6.13;;;;;;;;;;5051710;28;20062;-68
2023/05/25 04:27:58;;;;;;;12.88;6.68;;;;;;;;;;5052063;28;20039;-68
2023/05/25 04:30:24;;;;;;;11.15;6.13;;;;;;;;;;5051744;28;20082;-68
2023/05/25 04:32:50;;;;;;;11.57;6.15;;;;;;;;;;5052229;28;20037;-68
2023/05/25 04:35:19;;;;;;;10.65;6.53;;;;;;;;;;5052037;28;20024;-67
2023/05/25 04:37:47;;;;;;;10.52;6.45;;;;;;;;;;5051871;28;20025;-68
2023/05/25 04:40:13;;;;;;;14.93;6.45;;;;;;;;;;5051604;28;20039;-68
2023/05/25 04:42:40;;;;;;;14.57;6.15;;;;;;;;;;5051863;28;20021;-67
2023/05/25 04:45:10;;;;;;;10.57;6.07;;;;;;;;;;5051883;28;20505;-67
2023/05/25 04:47:39;;;;;;;12.37;6.77;;;;;;;;;;5052266;28;20017;-68
2023/05/25 04:50:07;;;;;;;10.23;5.70;;;;;;;;;;5051887;28;20270;-68
2023/05/25 04:52:33;;;;;;;15.02;6.82;;;;;;;;;;5051842;28;20017;-68
2023/05/25 04:55:01;;;;;;;10.90;6.50;;;;;;;;;;5051794;28;20032;-68
2023/05/25 04:57:29;;;;;;;10.10;6.25;;;;;;;;;;5051559;28;20040;-68
2023/05/25 04:59:55;;;;;;;16.13;6.53;;;;;;;;;;5051936;28;20035;-67
2023/05/25 05:02:22;;;;;;;12.02;6.10;;;;;;;;;;5051623;28;20035;-68
2023/05/25 05:04:51;;;;;;;14.00;6.32;;;;;;;;;;5050266;28;20482;-68
2023/05/25 05:07:17;;;;;;;14.63;5.97;;;;;;;;;;5051398;28;20025;-68
2023/05/25 05:09:43;;;;;;;12.15;6.70;;;;;;;;;;5051467;28;20039;-68
2023/05/25 05:12:10;;;;;;;13.52;6.57;;;;;;;;;;5051754;28;20032;-68
2023/05/25 05:14:36;;;;;;;10.48;6.32;;;;;;;;;;5051891;28;20029;-68
2023/05/25 05:17:03;;;;;;;13.73;6.22;;;;;;;;;;5051349;28;20031;-68
2023/05/25 05:19:31;;;;;;;11.25;6.28;;;;;;;;;;5051660;28;20047;-68
2023/05/25 05:21:58;;;;;;;13.82;6.63;;;;;;;;;;5051354;28;20017;-68
2023/05/25 05:24:24;;;;;;;22.02;6.78;;;;;;;;;;5055004;28;20053;-68
2023/05/25 05:26:51;;;;;;;16.23;6.72;;;;;;;;;;5055260;28;20043;-68
2023/05/25 05:29:18;;;;;;;21.17;7.13;;;;;;;;;;5055187;28;20044;-68
2023/05/25 05:31:45;;;;;;;15.70;6.35;;;;;;;;;;5055382;28;20079;-68
2023/05/25 05:34:11;;;;;;;23.05;6.85;;;;;;;;;;5055107;28;20028;-68
2023/05/25 05:36:37;;;;;;;13.32;6.75;;;;;;;;;;5055247;28;20039;-68
2023/05/25 05:39:04;;;;;;;19.95;6.07;;;;;;;;;;5054935;28;20025;-67
2023/05/25 05:41:30;;;;;;;17.00;6.68;;;;;;;;;;5055163;28;20055;-68
2023/05/25 05:43:56;;;;;;;22.50;6.35;;;;;;;;;;5054896;28;20024;-68
2023/05/25 05:46:22;;;;;;;11.93;6.22;;;;;;;;;;5054858;28;20505;-68
2023/05/25 05:48:49;;;;;;;11.90;6.03;;;;;;;;;;5054754;28;20397;-67
2023/05/25 05:51:15;;;;;;;13.75;6.38;;;;;;;;;;5054539;28;20043;-67
2023/05/25 05:53:41;;;;;;;12.45;5.88;;;;;;;;;;5054725;28;20047;-67
2023/05/25 05:56:16;;;;;;;11.48;5.82;;;;;;;;;;5054597;28;20035;-67
2023/05/25 05:58:42;;;;;;;18.15;6.60;;;;;;;;;;5054999;28;20031;-67
2023/05/25 06:01:08;;;;;;;16.42;5.72;;;;;;;;;;5054689;28;20489;-67
2023/05/25 06:03:34;;;;;;;12.27;6.07;;;;;;;;;;5054605;28;20020;-67
2023/05/25 06:06:01;;;;;;;17.55;6.20;;;;;;;;;;5054366;28;20033;-67
2023/05/25 06:08:27;;;;;;;9.18;5.13;;;;;;;;;;5054436;28;20393;-68
2023/05/25 06:10:54;;;;;;;10.63;5.07;;;;;;;;;;5054382;28;20029;-67
2023/05/25 06:13:21;;;;;;;8.05;4.50;;;;;;;;;;5051411;28;20021;-69
2023/05/25 06:15:47;;;;;;;11.15;4.32;;;;;;;;;;5055074;28;20081;-67
2023/05/25 06:18:13;;;;;;;9.35;5.38;;;;;;;;;;5054232;28;20029;-70
2023/05/25 06:20:40;;;;;;;12.57;5.30;;;;;;;;;;5053539;28;20028;-67
2023/05/25 06:23:08;;;;;;;11.10;5.15;;;;;;;;;;5053760;28;20112;-67
2023/05/25 06:25:35;;;;;;;10.77;5.32;;;;;;;;;;5053915;28;20029;-67
2023/05/25 06:28:01;;;;;;;11.70;5.47;;;;;;;;;;5045051;28;20039;-67
2023/05/25 06:30:27;;;;;;;10.40;4.85;;;;;;;;;;5077615;28;20031;-68
2023/05/25 06:32:53;;;;;;;10.82;5.15;;;;;;;;;;5052201;28;20062;-67
2023/05/25 06:35:20;;;;;;;8.10;4.35;;;;;;;;;;5053087;28;20470;-68
2023/05/25 06:37:47;;;;;;;7.88;5.05;;;;;;;;;;5053605;28;20498;-68
2023/05/25 06:40:14;;;;;;;10.48;4.90;;;;;;;;;;5053551;28;20024;-68
2023/05/25 06:42:41;;;;;;;15.15;4.93;;;;;;;;;;5054641;28;20512;-67
2023/05/25 06:45:08;;;;;;;12.38;4.70;;;;;;;;;;5050939;28;20047;-68
2023/05/25 06:47:34;;;;;;;9.07;4.63;;;;;;;;;;5052950;28;20031;-67
2023/05/25 06:50:01;;;;;;;10.45;4.53;;;;;;;;;;5053080;28;20462;-68
2023/05/25 06:52:27;;;;;;;9.23;4.15;;;;;;;;;;5052067;28;20032;-68
2023/05/25 06:54:54;;;;;;;15.27;4.30;;;;;;;;;;5053300;28;20017;-68
2023/05/25 06:57:21;;;;;;;9.82;4.07;;;;;;;;;;5053284;28;20091;-68
2023/05/25 06:59:48;;;;;;;7.80;4.13;;;;;;;;;;5053486;28;20019;-68
2023/05/25 07:02:14;;;;;;;11.20;4.45;;;;;;;;;;5053183;28;20029;-68
2023/05/25 07:04:40;;;;;;;9.77;3.97;;;;;;;;;;5052918;28;20019;-68
2023/05/25 07:07:08;;;;;;;8.27;3.47;;;;;;;;;;5051818;28;20041;-68
2023/05/25 07:09:34;;;;;;;8.60;3.63;;;;;;;;;;5053657;28;20021;-68
2023/05/25 07:12:01;;;;;;;15.60;3.53;;;;;;;;;;5052800;28;20032;-68
2023/05/25 07:14:27;;;;;;;10.07;3.60;;;;;;;;;;5052887;28;20032;-68
2023/05/25 07:16:54;;;;;;;10.65;3.67;;;;;;;;;;5051446;28;20065;-68
2023/05/25 07:19:20;;;;;;;9.50;3.25;;;;;;;;;;5050771;28;20485;-68
2023/05/25 07:21:46;;;;;;;7.28;3.30;;;;;;;;;;5051965;28;20025;-68
2023/05/25 07:24:12;;;;;;;6.90;3.13;;;;;;;;;;5051471;28;20432;-68
2023/05/25 07:26:39;;;;;;;11.48;3.55;;;;;;;;;;5051589;28;20052;-68
2023/05/25 07:29:06;;;;;;;8.70;3.30;;;;;;;;;;5052216;28;20019;-68
2023/05/25 07:31:32;;;;;;;8.82;3.67;;;;;;;;;;5051714;28;20405;-69
2023/05/25 07:33:58;;;;;;;8.60;3.75;;;;;;;;;;5051276;28;20397;-69
2023/05/25 07:36:25;;;;;;;5.78;3.00;;;;;;;;;;5051247;28;20032;-68
2023/05/25 07:38:51;;;;;;;7.55;3.10;;;;;;;;;;5051392;28;20035;-69
2023/05/25 07:41:18;;;;;;;6.90;3.75;;;;;;;;;;5051391;28;20017;-68
2023/05/25 07:43:44;;;;;;;6.75;3.10;;;;;;;;;;5052339;28;20043;-69
2023/05/25 07:46:11;;;;;;;7.50;3.17;;;;;;;;;;5049515;28;20520;-69
2023/05/25 07:48:37;;;;;;;6.78;3.20;;;;;;;;;;5052145;28;20027;-69
2023/05/25 07:51:03;;;;;;;8.93;3.47;;;;;;;;;;5050901;28;20477;-68
2023/05/25 07:53:30;;;;;;;7.15;3.08;;;;;;;;;;5050419;28;20013;-68
2023/05/25 07:55:56;;;;;;;5.38;2.78;;;;;;;;;;5051029;28;20040;-68
2023/05/25 07:58:22;;;;;;;7.22;2.92;;;;;;;;;;5050906;28;20029;-69
2023/05/25 08:00:49;;;;;;;7.10;2.75;;;;;;;;;;5051129;28;20039;-69
2023/05/25 08:03:16;;;;;;;9.98;2.53;;;;;;;;;;5050788;28;20013;-69
2023/05/25 08:05:42;;;;;;;5.95;2.88;;;;;;;;;;5048780;28;20035;-69
2023/05/25 08:08:09;;;;;;;6.75;2.67;;;;;;;;;;5051200;28;20021;-69
2023/05/25 08:10:36;;;;;;;4.47;2.75;;;;;;;;;;5050916;28;20029;-69
2023/05/25 08:13:02;;;;;;;8.20;3.00;;;;;;;;;;5051095;28;20110;-68
2023/05/25 08:15:28;;;;;;;5.72;3.00;;;;;;;;;;5050828;28;20474;-69
2023/05/25 08:17:55;;;;;;;5.93;2.72;;;;;;;;;;5050639;28;20055;-69
2023/05/25 08:20:23;;;;;;;8.43;3.35;;;;;;;;;;5050830;28;20029;-69
2023/05/25 08:22:52;;;;;;;5.55;2.70;;;;;;;;;;5050963;28;20041;-69
2023/05/25 08:25:19;;;;;;;6.95;2.42;;;;;;;;;;5051192;28;20067;-68
2023/05/25 08:27:46;;;;;;;4.78;2.50;;;;;;;;;;5062677;28;20021;-69
2023/05/25 08:30:12;;;;;;;6.78;2.88;;;;;;;;;;5070873;28;20099;-69
2023/05/25 08:32:39;;;;;;;9.27;2.95;;;;;;;;;;5055901;28;20051;-69
2023/05/25 08:35:05;;;;;;;7.50;3.30;;;;;;;;;;5050642;28;20028;-69
2023/05/25 08:37:32;;;;;;;6.97;2.67;;;;;;;;;;5049970;28;20025;-69
2023/05/25 08:40:01;;;;;;;6.20;3.05;;;;;;;;;;5050611;28;20025;-69
2023/05/25 08:42:27;;;;;;;5.05;2.80;;;;;;;;;;5050431;28;20025;-69
2023/05/25 08:44:54;;;;;;;6.28;2.50;;;;;;;;;;5051202;28;20014;-69
2023/05/25 08:47:22;;;;;;;5.90;2.65;;;;;;;;;;5051601;28;20435;-70
2023/05/25 08:49:49;;;;;;;5.32;2.80;;;;;;;;;;5050611;28;20025;-69
2023/05/25 08:52:20;;;;;;;4.75;2.72;;;;;;;;;;5050112;28;20036;-69
2023/05/25 08:54:47;;;;;;;7.80;2.90;;;;;;;;;;5049194;28;20031;-69
2023/05/25 08:57:23;;;;;;;8.38;2.90;;;;;;;;;;5052377;28;20043;-69
2023/05/25 09:00:03;;;;;;;6.40;2.75;;;;;;;;;;5054612;28;20035;-69
2023/05/25 09:02:39;;;;;;;5.85;3.00;;;;;;;;;;5054659;28;20043;-69
2023/05/25 09:05:05;;;;;;;8.13;2.53;;;;;;;;;;5054530;28;20039;-69
2023/05/25 09:07:32;;;;;;;6.68;2.75;;;;;;;;;;5054605;28;20020;-69
2023/05/25 09:09:59;;;;;;;6.55;2.75;;;;;;;;;;5054573;28;20029;-69
2023/05/25 09:12:27;;;;;;;7.80;2.80;;;;;;;;;;5054366;28;20021;-69
2023/05/25 09:14:53;;;;;;;3.83;2.50;;;;;;;;;;5054051;28;20477;-69
2023/05/25 09:17:20;;;;;;;5.13;2.45;;;;;;;;;;5053914;28;20035;-69
2023/05/25 09:19:46;;;;;;;5.80;2.60;;;;;;;;;;5054017;28;20029;-69
2023/05/25 09:22:13;;;;;;;5.93;2.58;;;;;;;;;;5054168;28;20040;-71
2023/05/25 09:24:40;;;;;;;6.43;2.80;;;;;;;;;;5054233;28;20037;-69
2023/05/25 09:27:10;;;;;;;4.60;2.50;;;;;;;;;;5054260;28;20025;-70
2023/05/25 09:29:36;;;;;;;8.88;2.88;;;;;;;;;;5053868;28;20490;-69
2023/05/25 09:32:05;;;;;;;6.95;2.60;;;;;;;;;;5054192;28;20025;-70
2023/05/25 09:34:35;;;;;;;5.82;2.60;;;;;;;;;;5053983;28;20029;-69
2023/05/25 09:37:11;;;;;;;4.32;2.78;;;;;;;;;;5050515;28;20033;-69
2023/05/25 09:39:37;;;;;;;5.72;2.95;;;;;;;;;;5052722;28;20032;-69
2023/05/25 09:42:03;;;;;;;7.25;2.42;;;;;;;;;;5053247;28;20031;-69
2023/05/25 09:44:30;;;;;;;6.97;2.78;;;;;;;;;;5053453;28;20055;-69
2023/05/25 09:46:56;;;;;;;6.05;2.60;;;;;;;;;;5051656;28;20024;-69
2023/05/25 09:49:22;;;;;;;6.20;2.97;;;;;;;;;;5053415;28;20055;-69
2023/05/25 09:51:49;;;;;;;4.90;2.80;;;;;;;;;;5052797;28;20029;-70
2023/05/25 09:54:15;;;;;;;4.60;2.83;;;;;;;;;;5052217;28;20033;-70
2023/05/25 09:56:42;;;;;;;4.35;2.83;;;;;;;;;;5052291;28;20033;-69
2023/05/25 09:59:08;;;;;;;3.72;2.78;;;;;;;;;;5053104;28;20018;-69
2023/05/25 10:01:35;;;;;;;4.47;2.83;;;;;;;;;;5053246;28;20028;-69
2023/05/25 10:04:01;;;;;;;6.10;2.80;;;;;;;;;;5052041;28;20021;-70
2023/05/25 10:06:28;;;;;;;6.85;2.63;;;;;;;;;;5052957;28;20486;-70
2023/05/25 10:08:56;;;;;;;6.53;3.15;;;;;;;;;;5051660;28;20031;-70
2023/05/25 10:11:25;;;;;;;7.03;3.45;;;;;;;;;;5053298;28;20119;-69
2023/05/25 10:13:53;;;;;;;3.97;2.83;;;;;;;;;;5053060;28;20488;-69
2023/05/25 10:16:23;;;;;;;7.00;3.50;;;;;;;;;;5053222;28;20350;-69
2023/05/25 10:18:54;;;;;;;7.05;3.00;;;;;;;;;;5051953;28;20428;-69
2023/05/25 10:21:22;;;;;;;4.20;2.60;;;;;;;;;;5052860;28;20036;-70
2023/05/25 10:23:51;;;;;;;4.40;2.90;;;;;;;;;;5053019;28;20052;-69
2023/05/25 10:26:23;;;;;;;8.30;3.25;;;;;;;;;;5051628;28;20103;-69
2023/05/25 10:28:50;;;;;;;6.03;2.95;;;;;;;;;;5052803;28;20029;-70
2023/05/25 10:31:17;;;;;;;5.43;3.30;;;;;;;;;;5051423;28;20036;-69
2023/05/25 10:33:44;;;;;;;5.20;3.38;;;;;;;;;;5052697;28;20525;-69
2023/05/25 10:36:12;;;;;;;5.78;3.50;;;;;;;;;;5052710;28;20043;-69
2023/05/25 10:38:39;;;;;;;4.55;2.80;;;;;;;;;;5052803;28;20020;-69
2023/05/25 10:41:07;;;;;;;6.00;3.20;;;;;;;;;;5052549;28;20028;-69
2023/05/25 10:43:34;;;;;;;3.97;3.10;;;;;;;;;;5052615;28;20048;-69
2023/05/25 10:46:00;;;;;;;4.43;3.03;;;;;;;;;;5052924;28;20017;-69
2023/05/25 10:48:36;;;;;;;6.05;3.15;;;;;;;;;;5052063;28;20040;-69
2023/05/25 10:51:02;;;;;;;4.35;2.80;;;;;;;;;;5052838;28;20032;-69
2023/05/25 10:53:29;;;;;;;5.22;3.38;;;;;;;;;;5052826;28;20027;-69
2023/05/25 10:56:03;;;;;;;3.90;3.00;;;;;;;;;;5052309;28;20630;-69
2023/05/25 10:58:30;;;;;;;3.95;3.35;;;;;;;;;;5052305;28;20021;-68
2023/05/25 11:01:02;;;;;;;7.63;3.20;;;;;;;;;;5052242;28;20410;-69
2023/05/25 11:03:44;;;;;;;4.95;3.10;;;;;;;;;;5052261;28;20025;-69
2023/05/25 11:06:11;;;;;;;5.50;3.50;;;;;;;;;;5052756;28;20029;-69
2023/05/25 11:08:55;;;;;;;5.18;3.22;;;;;;;;;;5053300;28;20017;-69
2023/05/25 11:11:42;;;;;;;8.00;3.35;;;;;;;;;;5052970;28;20024;-69
2023/05/25 11:14:28;;;;;;;10.02;3.35;;;;;;;;;;5049506;28;20039;-69
2023/05/25 11:17:14;;;;;;;4.80;3.40;;;;;;;;;;5053371;28;20040;-69
2023/05/25 11:19:45;;;;;;;4.97;3.55;;;;;;;;;;5051939;28;20039;-69
2023/05/25 11:22:21;;;;;;;4.47;3.22;;;;;;;;;;5051756;28;20367;-69
2023/05/25 11:24:50;;;;;;;5.25;3.17;;;;;;;;;;5051607;28;20033;-69
2023/05/25 11:27:22;;;;;;;6.65;3.72;;;;;;;;;;5051737;28;20040;-69
2023/05/25 11:29:50;;;;;;;6.07;3.40;;;;;;;;;;5052059;28;20027;-69
2023/05/25 11:32:16;;;;;;;5.38;3.70;;;;;;;;;;5052036;28;20021;-69
2023/05/25 11:34:45;;;;;;;7.88;3.80;;;;;;;;;;5051837;28;20043;-69
2023/05/25 11:37:14;;;;;;;9.07;3.40;;;;;;;;;;5051565;28;20041;-69
2023/05/25 11:39:42;;;;;;;6.50;3.30;;;;;;;;;;5048098;28;20029;-68
2023/05/25 11:42:10;;;;;;;5.78;3.53;;;;;;;;;;5050289;28;20033;-68
2023/05/25 11:44:37;;;;;;;9.57;3.63;;;;;;;;;;5051170;28;20021;-68
2023/05/25 11:47:13;;;;;;;8.50;3.97;;;;;;;;;;5050872;28;20031;-68
2023/05/25 11:49:48;;;;;;;9.35;3.92;;;;;;;;;;5051111;28;20039;-69
2023/05/25 11:52:18;;;;;;;11.43;4.55;;;;;;;;;;5051079;28;20017;-68
2023/05/25 11:54:44;;;;;;;8.70;4.10;;;;;;;;;;5050931;28;20474;-68
2023/05/25 11:57:23;;;;;;;7.47;3.95;;;;;;;;;;5051077;28;20032;-68
2023/05/25 11:59:59;;;;;;;8.15;4.30;;;;;;;;;;5048372;28;20033;-68
2023/05/25 12:02:25;;;;;;;8.13;4.10;;;;;;;;;;5050674;28;20036;-68
2023/05/25 12:04:53;;;;;;;7.90;3.90;;;;;;;;;;5050828;28;20070;-68
2023/05/25 12:07:19;;;;;;;7.57;3.65;;;;;;;;;;5050729;28;20021;-68
2023/05/25 12:09:45;;;;;;;5.88;3.65;;;;;;;;;;5050227;28;20029;-68
2023/05/25 12:12:12;;;;;;;6.65;3.70;;;;;;;;;;5050655;28;20505;-68
2023/05/25 12:14:48;;;;;;;8.10;3.50;;;;;;;;;;5050744;28;20021;-68
2023/05/25 12:17:16;;;;;;;7.28;3.90;;;;;;;;;;5050756;28;20074;-68
2023/05/25 12:19:42;;;;;;;9.30;3.35;;;;;;;;;;5050573;28;20028;-68
2023/05/25 12:22:09;;;;;;;6.40;3.30;;;;;;;;;;5050540;28;20032;-68
2023/05/25 12:24:35;;;;;;;8.45;3.17;;;;;;;;;;5050833;28;20041;-68
2023/05/25 12:27:04;;;;;;;4.22;3.10;;;;;;;;;;5049925;28;20039;-69
2023/05/25 12:29:31;;;;;;;8.13;3.78;;;;;;;;;;5049948;28;20029;-68
2023/05/25 12:32:04;;;;;;;7.53;3.55;;;;;;;;;;5050074;28;20029;-68
2023/05/25 12:34:30;;;;;;;4.60;3.10;;;;;;;;;;5050102;28;20363;-68
2023/05/25 12:36:57;;;;;;;4.70;3.35;;;;;;;;;;5050538;28;20029;-68
2023/05/25 12:39:29;;;;;;;4.75;3.17;;;;;;;;;;5050021;28;20020;-68
2023/05/25 12:41:57;;;;;;;7.03;3.30;;;;;;;;;;5049277;28;20021;-68
2023/05/25 12:44:24;;;;;;;5.85;3.55;;;;;;;;;;5050128;28;20013;-68
2023/05/25 12:46:51;;;;;;;6.85;3.00;;;;;;;;;;5049896;28;20039;-68
2023/05/25 12:49:28;;;;;;;7.07;3.30;;;;;;;;;;5050012;28;20474;-68
2023/05/25 12:51:55;;;;;;;9.30;3.60;;;;;;;;;;5038027;28;20029;-68
2023/05/25 12:54:40;;;;;;;6.43;3.25;;;;;;;;;;5049928;28;20029;-68
2023/05/25 12:57:10;;;;;;;6.30;3.55;;;;;;;;;;5048597;28;20040;-68
2023/05/25 12:59:37;;;;;;;5.40;3.03;;;;;;;;;;5048940;28;20029;-67
2023/05/25 13:02:07;;;;;;;6.80;3.08;;;;;;;;;;5048888;28;20025;-68
2023/05/25 13:04:34;;;;;;;6.13;3.90;;;;;;;;;;5046700;28;20051;-68
2023/05/25 13:07:00;;;;;;;3.97;2.67;;;;;;;;;;5055535;28;20031;-68
2023/05/25 13:09:26;;;;;;;7.25;3.70;;;;;;;;;;5053097;28;20102;-68
2023/05/25 13:11:54;;;;;;;7.00;3.67;;;;;;;;;;5048938;28;20044;-68
2023/05/25 13:14:21;;;;;;;5.95;3.30;;;;;;;;;;5052911;28;20035;-68
2023/05/25 13:16:48;;;;;;;5.93;3.70;;;;;;;;;;5056375;28;20028;-68
2023/05/25 13:19:15;;;;;;;8.02;3.50;;;;;;;;;;5070213;28;20027;-67
2023/05/25 13:21:41;;;;;;;5.47;3.25;;;;;;;;;;5054901;28;20037;-68
2023/05/25 13:24:07;;;;;;;6.60;3.13;;;;;;;;;;5049706;28;20033;-68
2023/05/25 13:26:34;;;;;;;6.68;3.35;;;;;;;;;;5067492;28;20048;-68
2023/05/25 13:29:00;;;;;;;7.30;3.10;;;;;;;;;;5065658;28;20475;-68
2023/05/25 13:31:26;;;;;;;6.65;3.58;;;;;;;;;;5052727;28;20032;-68
2023/05/25 13:33:53;;;;;;;3.70;2.83;;;;;;;;;;5070217;28;20032;-68
2023/05/25 13:36:19;;;;;;;4.50;3.20;;;;;;;;;;5056443;28;20587;-68
2023/05/25 13:38:45;;;;;;;4.65;3.20;;;;;;;;;;5050216;28;20028;-68
2023/05/25 13:41:12;;;;;;;4.57;3.00;;;;;;;;;;5069429;28;20426;-68
2023/05/25 13:43:38;;;;;;;6.10;3.15;;;;;;;;;;5057424;28;20458;-68
2023/05/25 13:46:05;;;;;;;4.32;3.00;;;;;;;;;;5053325;28;20041;-68
2023/05/25 13:48:31;;;;;;;7.65;3.35;;;;;;;;;;5052527;28;20898;-68
2023/05/25 13:50:58;;;;;;;8.80;3.20;;;;;;;;;;5058486;28;20032;-68
2023/05/25 13:53:25;;;;;;;5.32;3.20;;;;;;;;;;5053414;28;20031;-68
2023/05/25 13:55:51;;;;;;;5.47;3.30;;;;;;;;;;5062291;28;20037;-69
2023/05/25 13:58:17;;;;;;;3.53;3.10;;;;;;;;;;5049615;28;20082;-67
2023/05/25 14:00:44;;;;;;;5.45;3.28;;;;;;;;;;5055851;28;20021;-68
2023/05/25 14:03:10;;;;;;;6.10;3.30;;;;;;;;;;5055121;28;20021;-67
2023/05/25 14:05:36;;;;;;;9.63;3.40;;;;;;;;;;5036236;28;20036;-68
2023/05/25 14:08:03;;;;;;;6.82;3.80;;;;;;;;;;5040206;28;20022;-68
2023/05/25 14:10:32;;;;;;;9.48;3.53;;;;;;;;;;5052830;28;20025;-68
2023/05/25 14:12:59;;;;;;;7.57;3.88;;;;;;;;;;5063247;28;20032;-68
2023/05/25 14:15:25;;;;;;;6.80;3.38;;;;;;;;;;5053665;28;20032;-68
2023/05/25 14:17:52;;;;;;;8.40;3.90;;;;;;;;;;5051714;28;20021;-68
2023/05/25 14:20:24;;;;;;;6.72;3.38;;;;;;;;;;5046697;28;20017;-68
2023/05/25 14:22:51;;;;;;;5.90;3.38;;;;;;;;;;5042413;28;20041;-68
2023/05/25 14:25:18;;;;;;;7.30;3.25;;;;;;;;;;5037541;28;20421;-68
2023/05/25 14:27:44;;;;;;;5.95;3.80;;;;;;;;;;5052132;28;20482;-68
2023/05/25 14:30:11;;;;;;;6.55;3.35;;;;;;;;;;5053378;28;20193;-68
2023/05/25 14:32:37;;;;;;;6.50;3.58;;;;;;;;;;5052188;28;20074;-68
2023/05/25 14:35:04;;;;;;;4.60;3.38;;;;;;;;;;5059619;28;20103;-68
2023/05/25 14:37:30;;;;;;;8.80;3.60;;;;;;;;;;5051627;28;20455;-68
2023/05/25 14:39:56;;;;;;;6.65;3.40;;;;;;;;;;5053428;28;20017;-68